Portada
METAR-TAF:

METAR-TAF

Aeropuertos :

Aeropuerto de Hiroshima

Hiroshima, Japón

latitud: 34-26N, longitud: 132-55E, altitud: 331 m

Observación

El informe se hizo hace 40 minutos, a las 04:00 UTC
Viento 6 kt del oeste, variando entre suroeste y norte-noreste
Temperatura 10°C
Humedad 43%
Presión 1029 hPa
Visibilidad 10 km o más
Escasas nubes a una altura de 3000 ft
Nubes dispersas a una altura de 3500 ft

METAR: RJOA 200400Z 28006KT 220V030 9999 FEW030 SCT035 10/M02 Q1029

Hora: 13:40 (04:40 UTC)

Pronóstico

El informe se hizo hace 5 horas y 35 minutos, a las 23:05 UTC
Pronóstico válido del 20 a las 00 UTC al 21 a las 06 UTC
Viento 4 kt del sureste
Visibilidad 10 km o más
Escasas nubes a una altura de 3000 ft

TAF: RJOA 192305Z 2000/2106 14004KT 9999 FEW030

Observaciones y pronósticos meteorológicos de más de 4000 aeropuertos (mensajes METAR y TAF).

Los puntos amarillos y rojos representan las estaciones disponibles.

Ponga el ratón en el punto deseado para ver el nombre de la estación.

Haga clic para ver las observaciones y los pronósticos meteorológicos.

Para cambiar el mapa : haga clic en los botones verdes con una cruz de color negro para hacer un zoom, en el botón verde con un guión para alejar o en las flechas verdes para mapas adyacentes.


METAR-TAF: